sensor_id;sensor_type;location;lat;lon;timestamp;P1;durP1;ratioP1;P2;durP2;ratioP2
12658;SDS011;6394;52.488;13.386;2022-10-15T00:01:15;19.67;;;17.53;;
12658;SDS011;6394;52.488;13.386;2022-10-15T00:03:43;21.00;;;17.40;;
12658;SDS011;6394;52.488;13.386;2022-10-15T00:06:11;19.40;;;17.13;;
12658;SDS011;6394;52.488;13.386;2022-10-15T00:08:39;22.57;;;16.60;;
12658;SDS011;6394;52.488;13.386;2022-10-15T00:11:07;23.37;;;17.63;;
12658;SDS011;6394;52.488;13.386;2022-10-15T00:13:37;21.43;;;17.57;;
12658;SDS011;6394;52.488;13.386;2022-10-15T00:16:05;20.40;;;18.00;;
12658;SDS011;6394;52.488;13.386;2022-10-15T00:18:33;22.43;;;17.70;;
12658;SDS011;6394;52.488;13.386;2022-10-15T00:21:00;21.77;;;18.83;;
12658;SDS011;6394;52.488;13.386;2022-10-15T00:23:27;23.37;;;18.43;;
12658;SDS011;6394;52.488;13.386;2022-10-15T00:26:02;19.73;;;17.70;;
12658;SDS011;6394;52.488;13.386;2022-10-15T00:28:29;21.10;;;18.13;;
12658;SDS011;6394;52.488;13.386;2022-10-15T00:31:02;21.00;;;18.77;;
12658;SDS011;6394;52.488;13.386;2022-10-15T00:33:29;23.03;;;18.97;;
12658;SDS011;6394;52.488;13.386;2022-10-15T00:35:57;21.97;;;18.03;;
12658;SDS011;6394;52.488;13.386;2022-10-15T00:38:25;21.20;;;18.60;;
12658;SDS011;6394;52.488;13.386;2022-10-15T00:40:52;21.03;;;18.57;;
12658;SDS011;6394;52.488;13.386;2022-10-15T00:43:33;25.27;;;19.43;;
12658;SDS011;6394;52.488;13.386;2022-10-15T00:46:02;22.50;;;19.63;;
12658;SDS011;6394;52.488;13.386;2022-10-15T00:48:29;23.53;;;18.63;;
12658;SDS011;6394;52.488;13.386;2022-10-15T00:50:57;22.53;;;19.47;;
12658;SDS011;6394;52.488;13.386;2022-10-15T00:53:27;24.93;;;20.37;;
12658;SDS011;6394;52.488;13.386;2022-10-15T00:55:54;23.80;;;20.13;;
12658;SDS011;6394;52.488;13.386;2022-10-15T00:58:22;25.57;;;20.27;;
12658;SDS011;6394;52.488;13.386;2022-10-15T01:00:52;21.67;;;19.37;;
12658;SDS011;6394;52.488;13.386;2022-10-15T01:03:21;22.20;;;19.70;;
12658;SDS011;6394;52.488;13.386;2022-10-15T01:05:49;23.33;;;20.57;;
12658;SDS011;6394;52.488;13.386;2022-10-15T01:08:17;22.67;;;20.00;;
12658;SDS011;6394;52.488;13.386;2022-10-15T01:10:47;21.53;;;18.90;;
12658;SDS011;6394;52.488;13.386;2022-10-15T01:13:17;25.13;;;20.10;;
12658;SDS011;6394;52.488;13.386;2022-10-15T01:15:48;23.30;;;18.80;;
12658;SDS011;6394;52.488;13.386;2022-10-15T01:18:21;21.87;;;19.23;;
12658;SDS011;6394;52.488;13.386;2022-10-15T01:20:56;21.97;;;19.40;;
12658;SDS011;6394;52.488;13.386;2022-10-15T01:28:56;21.63;;;19.30;;
12658;SDS011;6394;52.488;13.386;2022-10-15T01:31:28;21.80;;;19.40;;
12658;SDS011;6394;52.488;13.386;2022-10-15T01:33:59;24.73;;;18.30;;
12658;SDS011;6394;52.488;13.386;2022-10-15T01:36:30;22.10;;;19.23;;
12658;SDS011;6394;52.488;13.386;2022-10-15T01:38:59;22.17;;;19.40;;
12658;SDS011;6394;52.488;13.386;2022-10-15T01:41:28;25.77;;;21.23;;
12658;SDS011;6394;52.488;13.386;2022-10-15T01:43:58;21.43;;;19.07;;
12658;SDS011;6394;52.488;13.386;2022-10-15T01:46:31;21.13;;;18.90;;
12658;SDS011;6394;52.488;13.386;2022-10-15T01:48:59;24.60;;;19.90;;
12658;SDS011;6394;52.488;13.386;2022-10-15T01:51:28;22.30;;;19.90;;
12658;SDS011;6394;52.488;13.386;2022-10-15T01:53:56;24.97;;;20.87;;
12658;SDS011;6394;52.488;13.386;2022-10-15T01:56:23;22.63;;;19.87;;
12658;SDS011;6394;52.488;13.386;2022-10-15T01:58:53;25.77;;;19.83;;
12658;SDS011;6394;52.488;13.386;2022-10-15T02:01:20;21.90;;;18.83;;
12658;SDS011;6394;52.488;13.386;2022-10-15T02:03:50;23.33;;;20.17;;
12658;SDS011;6394;52.488;13.386;2022-10-15T02:06:19;23.17;;;20.10;;
12658;SDS011;6394;52.488;13.386;2022-10-15T02:08:51;24.80;;;20.30;;
12658;SDS011;6394;52.488;13.386;2022-10-15T02:11:21;21.17;;;18.87;;
12658;SDS011;6394;52.488;13.386;2022-10-15T02:13:49;23.43;;;19.80;;
12658;SDS011;6394;52.488;13.386;2022-10-15T02:16:19;23.07;;;19.33;;
12658;SDS011;6394;52.488;13.386;2022-10-15T02:18:53;24.47;;;19.40;;
12658;SDS011;6394;52.488;13.386;2022-10-15T02:21:25;22.73;;;19.67;;
12658;SDS011;6394;52.488;13.386;2022-10-15T02:23:56;21.90;;;19.20;;
12658;SDS011;6394;52.488;13.386;2022-10-15T02:26:27;21.97;;;19.57;;
12658;SDS011;6394;52.488;13.386;2022-10-15T02:28:56;22.73;;;19.40;;
12658;SDS011;6394;52.488;13.386;2022-10-15T02:31:23;22.93;;;19.50;;
12658;SDS011;6394;52.488;13.386;2022-10-15T02:33:53;23.37;;;19.43;;
12658;SDS011;6394;52.488;13.386;2022-10-15T02:36:22;22.60;;;19.77;;
12658;SDS011;6394;52.488;13.386;2022-10-15T02:38:49;25.73;;;19.67;;
12658;SDS011;6394;52.488;13.386;2022-10-15T02:41:17;28.03;;;22.83;;
12658;SDS011;6394;52.488;13.386;2022-10-15T02:43:45;22.63;;;20.23;;
12658;SDS011;6394;52.488;13.386;2022-10-15T02:46:12;26.73;;;20.17;;
12658;SDS011;6394;52.488;13.386;2022-10-15T02:48:40;22.63;;;19.73;;
12658;SDS011;6394;52.488;13.386;2022-10-15T02:51:09;21.70;;;19.40;;
12658;SDS011;6394;52.488;13.386;2022-10-15T02:53:36;21.87;;;18.57;;
12658;SDS011;6394;52.488;13.386;2022-10-15T02:56:03;23.07;;;19.30;;
12658;SDS011;6394;52.488;13.386;2022-10-15T02:58:31;24.13;;;19.07;;
12658;SDS011;6394;52.488;13.386;2022-10-15T03:00:58;23.20;;;19.23;;
12658;SDS011;6394;52.488;13.386;2022-10-15T03:03:25;24.23;;;19.67;;
12658;SDS011;6394;52.488;13.386;2022-10-15T03:05:52;24.33;;;19.93;;
12658;SDS011;6394;52.488;13.386;2022-10-15T03:08:21;21.77;;;19.40;;
12658;SDS011;6394;52.488;13.386;2022-10-15T03:10:48;23.00;;;19.70;;
12658;SDS011;6394;52.488;13.386;2022-10-15T03:13:15;21.70;;;19.40;;
12658;SDS011;6394;52.488;13.386;2022-10-15T03:15:42;27.53;;;20.37;;
12658;SDS011;6394;52.488;13.386;2022-10-15T03:18:09;24.40;;;19.90;;
12658;SDS011;6394;52.488;13.386;2022-10-15T03:20:37;24.67;;;19.97;;
12658;SDS011;6394;52.488;13.386;2022-10-15T03:23:04;23.10;;;20.60;;
12658;SDS011;6394;52.488;13.386;2022-10-15T03:25:33;26.03;;;20.43;;
12658;SDS011;6394;52.488;13.386;2022-10-15T03:28:00;22.20;;;19.80;;
12658;SDS011;6394;52.488;13.386;2022-10-15T03:30:27;23.83;;;20.17;;
12658;SDS011;6394;52.488;13.386;2022-10-15T03:32:55;25.33;;;21.90;;
12658;SDS011;6394;52.488;13.386;2022-10-15T03:35:23;26.50;;;21.10;;
12658;SDS011;6394;52.488;13.386;2022-10-15T03:37:50;23.80;;;20.77;;
12658;SDS011;6394;52.488;13.386;2022-10-15T03:40:17;26.17;;;21.40;;
12658;SDS011;6394;52.488;13.386;2022-10-15T03:42:50;26.50;;;22.03;;
12658;SDS011;6394;52.488;13.386;2022-10-15T03:45:17;24.83;;;21.73;;
12658;SDS011;6394;52.488;13.386;2022-10-15T03:47:44;24.73;;;20.93;;
12658;SDS011;6394;52.488;13.386;2022-10-15T03:50:11;27.67;;;22.10;;
12658;SDS011;6394;52.488;13.386;2022-10-15T03:52:38;26.47;;;21.07;;
12658;SDS011;6394;52.488;13.386;2022-10-15T03:55:06;25.47;;;20.97;;
12658;SDS011;6394;52.488;13.386;2022-10-15T03:57:37;24.27;;;20.43;;
12658;SDS011;6394;52.488;13.386;2022-10-15T04:00:08;24.33;;;20.80;;
12658;SDS011;6394;52.488;13.386;2022-10-15T04:02:36;27.63;;;21.97;;
12658;SDS011;6394;52.488;13.386;2022-10-15T04:05:03;24.80;;;21.37;;
12658;SDS011;6394;52.488;13.386;2022-10-15T04:07:30;25.47;;;21.80;;
12658;SDS011;6394;52.488;13.386;2022-10-15T04:09:58;28.00;;;21.37;;
12658;SDS011;6394;52.488;13.386;2022-10-15T04:12:25;28.20;;;22.73;;
12658;SDS011;6394;52.488;13.386;2022-10-15T04:14:52;28.73;;;22.07;;
12658;SDS011;6394;52.488;13.386;2022-10-15T04:17:21;27.83;;;22.10;;
12658;SDS011;6394;52.488;13.386;2022-10-15T04:19:48;28.27;;;22.17;;
12658;SDS011;6394;52.488;13.386;2022-10-15T04:22:15;25.90;;;22.13;;
12658;SDS011;6394;52.488;13.386;2022-10-15T04:24:43;26.87;;;21.13;;
12658;SDS011;6394;52.488;13.386;2022-10-15T04:27:10;26.03;;;22.13;;
12658;SDS011;6394;52.488;13.386;2022-10-15T04:29:38;24.67;;;20.50;;
12658;SDS011;6394;52.488;13.386;2022-10-15T04:32:05;29.47;;;21.60;;
12658;SDS011;6394;52.488;13.386;2022-10-15T04:34:33;27.77;;;21.33;;
12658;SDS011;6394;52.488;13.386;2022-10-15T04:37:02;25.87;;;21.37;;
12658;SDS011;6394;52.488;13.386;2022-10-15T04:39:29;24.57;;;20.37;;
12658;SDS011;6394;52.488;13.386;2022-10-15T04:41:56;23.03;;;20.60;;
12658;SDS011;6394;52.488;13.386;2022-10-15T04:44:23;24.17;;;20.57;;
12658;SDS011;6394;52.488;13.386;2022-10-15T04:46:50;24.00;;;20.20;;
12658;SDS011;6394;52.488;13.386;2022-10-15T04:49:18;22.20;;;19.03;;
12658;SDS011;6394;52.488;13.386;2022-10-15T04:51:46;23.03;;;19.43;;
12658;SDS011;6394;52.488;13.386;2022-10-15T04:54:14;22.27;;;19.53;;
12658;SDS011;6394;52.488;13.386;2022-10-15T04:56:41;22.87;;;18.53;;
12658;SDS011;6394;52.488;13.386;2022-10-15T04:59:08;21.27;;;17.97;;
12658;SDS011;6394;52.488;13.386;2022-10-15T05:01:35;20.97;;;18.47;;
12658;SDS011;6394;52.488;13.386;2022-10-15T05:04:03;19.00;;;16.80;;
12658;SDS011;6394;52.488;13.386;2022-10-15T05:06:31;20.67;;;17.40;;
12658;SDS011;6394;52.488;13.386;2022-10-15T05:09:00;17.77;;;15.87;;
12658;SDS011;6394;52.488;13.386;2022-10-15T05:11:27;19.67;;;16.03;;
12658;SDS011;6394;52.488;13.386;2022-10-15T05:13:55;18.27;;;16.17;;
12658;SDS011;6394;52.488;13.386;2022-10-15T05:16:23;17.80;;;15.27;;
12658;SDS011;6394;52.488;13.386;2022-10-15T05:18:51;17.90;;;15.40;;
12658;SDS011;6394;52.488;13.386;2022-10-15T05:21:18;17.30;;;15.40;;
12658;SDS011;6394;52.488;13.386;2022-10-15T05:23:45;18.33;;;15.53;;
12658;SDS011;6394;52.488;13.386;2022-10-15T05:26:17;16.67;;;14.80;;
12658;SDS011;6394;52.488;13.386;2022-10-15T05:28:44;17.10;;;15.13;;
12658;SDS011;6394;52.488;13.386;2022-10-15T05:31:12;18.53;;;14.93;;
12658;SDS011;6394;52.488;13.386;2022-10-15T05:33:40;16.90;;;15.00;;
12658;SDS011;6394;52.488;13.386;2022-10-15T05:36:08;18.53;;;14.87;;
12658;SDS011;6394;52.488;13.386;2022-10-15T05:38:35;20.43;;;15.07;;
12658;SDS011;6394;52.488;13.386;2022-10-15T05:41:02;17.23;;;14.60;;
12658;SDS011;6394;52.488;13.386;2022-10-15T05:43:31;18.37;;;16.10;;
12658;SDS011;6394;52.488;13.386;2022-10-15T05:45:58;17.87;;;15.97;;
12658;SDS011;6394;52.488;13.386;2022-10-15T05:48:26;17.17;;;15.30;;
12658;SDS011;6394;52.488;13.386;2022-10-15T05:50:53;18.27;;;15.57;;
12658;SDS011;6394;52.488;13.386;2022-10-15T05:53:20;15.90;;;14.20;;
12658;SDS011;6394;52.488;13.386;2022-10-15T05:55:47;16.00;;;14.33;;
12658;SDS011;6394;52.488;13.386;2022-10-15T05:58:14;19.77;;;15.03;;
12658;SDS011;6394;52.488;13.386;2022-10-15T06:00:43;16.27;;;14.50;;
12658;SDS011;6394;52.488;13.386;2022-10-15T06:03:11;16.33;;;14.40;;
12658;SDS011;6394;52.488;13.386;2022-10-15T06:05:40;16.17;;;14.33;;
12658;SDS011;6394;52.488;13.386;2022-10-15T06:08:07;15.70;;;14.07;;
12658;SDS011;6394;52.488;13.386;2022-10-15T06:10:35;17.13;;;14.57;;
12658;SDS011;6394;52.488;13.386;2022-10-15T06:13:02;16.90;;;14.07;;
12658;SDS011;6394;52.488;13.386;2022-10-15T06:15:30;17.00;;;15.20;;
12658;SDS011;6394;52.488;13.386;2022-10-15T06:17:59;17.30;;;15.50;;
12658;SDS011;6394;52.488;13.386;2022-10-15T06:20:26;18.23;;;15.00;;
12658;SDS011;6394;52.488;13.386;2022-10-15T06:22:57;17.73;;;14.90;;
12658;SDS011;6394;52.488;13.386;2022-10-15T06:25:24;19.03;;;14.83;;
12658;SDS011;6394;52.488;13.386;2022-10-15T06:27:52;16.80;;;15.07;;
12658;SDS011;6394;52.488;13.386;2022-10-15T06:30:19;17.67;;;15.23;;
12658;SDS011;6394;52.488;13.386;2022-10-15T06:32:47;16.63;;;14.83;;
12658;SDS011;6394;52.488;13.386;2022-10-15T06:35:16;18.90;;;15.57;;
12658;SDS011;6394;52.488;13.386;2022-10-15T06:37:45;17.30;;;14.83;;
12658;SDS011;6394;52.488;13.386;2022-10-15T06:40:13;15.87;;;14.17;;
12658;SDS011;6394;52.488;13.386;2022-10-15T06:42:41;18.23;;;16.13;;
12658;SDS011;6394;52.488;13.386;2022-10-15T06:45:09;17.13;;;15.27;;
12658;SDS011;6394;52.488;13.386;2022-10-15T06:47:37;19.83;;;15.00;;
12658;SDS011;6394;52.488;13.386;2022-10-15T06:50:06;18.53;;;14.90;;
12658;SDS011;6394;52.488;13.386;2022-10-15T06:52:35;18.90;;;15.70;;
12658;SDS011;6394;52.488;13.386;2022-10-15T06:55:02;16.53;;;14.53;;
12658;SDS011;6394;52.488;13.386;2022-10-15T06:57:30;17.43;;;14.20;;
12658;SDS011;6394;52.488;13.386;2022-10-15T06:59:57;16.97;;;14.03;;
12658;SDS011;6394;52.488;13.386;2022-10-15T07:02:24;16.33;;;14.13;;
12658;SDS011;6394;52.488;13.386;2022-10-15T07:04:52;14.57;;;12.77;;
12658;SDS011;6394;52.488;13.386;2022-10-15T07:07:19;15.83;;;13.70;;
12658;SDS011;6394;52.488;13.386;2022-10-15T07:09:48;17.13;;;13.53;;
12658;SDS011;6394;52.488;13.386;2022-10-15T07:12:17;14.90;;;12.70;;
12658;SDS011;6394;52.488;13.386;2022-10-15T07:14:46;15.53;;;12.60;;
12658;SDS011;6394;52.488;13.386;2022-10-15T07:17:14;15.27;;;12.80;;
12658;SDS011;6394;52.488;13.386;2022-10-15T07:19:41;14.00;;;12.50;;
12658;SDS011;6394;52.488;13.386;2022-10-15T07:22:09;13.50;;;12.10;;
12658;SDS011;6394;52.488;13.386;2022-10-15T07:24:36;13.27;;;11.93;;
12658;SDS011;6394;52.488;13.386;2022-10-15T07:27:05;13.63;;;12.27;;
12658;SDS011;6394;52.488;13.386;2022-10-15T07:29:32;13.17;;;11.60;;
12658;SDS011;6394;52.488;13.386;2022-10-15T07:31:59;12.90;;;11.53;;
12658;SDS011;6394;52.488;13.386;2022-10-15T07:34:27;11.83;;;10.63;;
12658;SDS011;6394;52.488;13.386;2022-10-15T07:36:55;12.10;;;10.87;;
12658;SDS011;6394;52.488;13.386;2022-10-15T07:39:22;12.77;;;10.77;;
12658;SDS011;6394;52.488;13.386;2022-10-15T07:41:49;12.23;;;10.87;;
12658;SDS011;6394;52.488;13.386;2022-10-15T07:44:18;11.80;;;10.50;;
12658;SDS011;6394;52.488;13.386;2022-10-15T07:46:45;12.40;;;11.07;;
12658;SDS011;6394;52.488;13.386;2022-10-15T07:49:13;11.63;;;10.43;;
12658;SDS011;6394;52.488;13.386;2022-10-15T07:51:41;11.87;;;10.70;;
12658;SDS011;6394;52.488;13.386;2022-10-15T07:54:09;11.37;;;10.27;;
12658;SDS011;6394;52.488;13.386;2022-10-15T07:56:36;12.23;;;10.93;;
12658;SDS011;6394;52.488;13.386;2022-10-15T07:59:06;11.60;;;10.50;;
12658;SDS011;6394;52.488;13.386;2022-10-15T08:01:35;11.93;;;10.73;;
12658;SDS011;6394;52.488;13.386;2022-10-15T08:04:03;11.57;;;10.50;;
12658;SDS011;6394;52.488;13.386;2022-10-15T08:06:30;12.30;;;11.10;;
12658;SDS011;6394;52.488;13.386;2022-10-15T08:08:57;9.73;;;8.80;;
12658;SDS011;6394;52.488;13.386;2022-10-15T08:11:25;10.40;;;9.40;;
12658;SDS011;6394;52.488;13.386;2022-10-15T08:13:52;10.40;;;8.60;;
12658;SDS011;6394;52.488;13.386;2022-10-15T08:16:20;9.57;;;8.60;;
12658;SDS011;6394;52.488;13.386;2022-10-15T08:18:52;9.73;;;8.33;;
12658;SDS011;6394;52.488;13.386;2022-10-15T08:21:19;9.33;;;8.43;;
12658;SDS011;6394;52.488;13.386;2022-10-15T08:23:46;8.43;;;7.63;;
12658;SDS011;6394;52.488;13.386;2022-10-15T08:26:14;6.90;;;6.27;;
12658;SDS011;6394;52.488;13.386;2022-10-15T08:28:41;7.90;;;7.10;;
12658;SDS011;6394;52.488;13.386;2022-10-15T08:31:08;8.93;;;8.10;;
12658;SDS011;6394;52.488;13.386;2022-10-15T08:33:36;8.00;;;7.20;;
12658;SDS011;6394;52.488;13.386;2022-10-15T08:36:06;8.53;;;7.00;;
12658;SDS011;6394;52.488;13.386;2022-10-15T08:38:33;7.80;;;7.03;;
12658;SDS011;6394;52.488;13.386;2022-10-15T08:41:01;8.93;;;8.10;;
12658;SDS011;6394;52.488;13.386;2022-10-15T08:43:32;8.43;;;7.50;;
12658;SDS011;6394;52.488;13.386;2022-10-15T08:46:03;9.20;;;8.23;;
12658;SDS011;6394;52.488;13.386;2022-10-15T08:48:32;9.07;;;8.27;;
12658;SDS011;6394;52.488;13.386;2022-10-15T08:51:01;9.30;;;8.40;;
12658;SDS011;6394;52.488;13.386;2022-10-15T08:53:31;9.40;;;8.53;;
12658;SDS011;6394;52.488;13.386;2022-10-15T08:56:02;10.03;;;8.33;;
12658;SDS011;6394;52.488;13.386;2022-10-15T08:58:36;9.07;;;8.13;;
12658;SDS011;6394;52.488;13.386;2022-10-15T09:01:09;10.80;;;9.43;;
12658;SDS011;6394;52.488;13.386;2022-10-15T09:03:38;10.87;;;9.87;;
12658;SDS011;6394;52.488;13.386;2022-10-15T09:06:11;10.07;;;9.07;;
12658;SDS011;6394;52.488;13.386;2022-10-15T09:08:45;10.43;;;9.43;;
12658;SDS011;6394;52.488;13.386;2022-10-15T09:11:15;11.70;;;9.50;;
12658;SDS011;6394;52.488;13.386;2022-10-15T09:13:44;8.93;;;8.13;;
12658;SDS011;6394;52.488;13.386;2022-10-15T09:16:13;9.00;;;8.10;;
12658;SDS011;6394;52.488;13.386;2022-10-15T09:18:42;10.53;;;7.90;;
12658;SDS011;6394;52.488;13.386;2022-10-15T09:21:10;9.03;;;8.13;;
12658;SDS011;6394;52.488;13.386;2022-10-15T09:23:39;9.30;;;8.40;;
12658;SDS011;6394;52.488;13.386;2022-10-15T09:26:17;8.70;;;7.87;;
12658;SDS011;6394;52.488;13.386;2022-10-15T09:28:46;8.57;;;7.80;;
12658;SDS011;6394;52.488;13.386;2022-10-15T09:31:18;9.33;;;8.43;;
12658;SDS011;6394;52.488;13.386;2022-10-15T09:33:46;9.47;;;8.47;;
12658;SDS011;6394;52.488;13.386;2022-10-15T09:36:24;8.17;;;7.33;;
12658;SDS011;6394;52.488;13.386;2022-10-15T09:38:59;7.87;;;7.17;;
12658;SDS011;6394;52.488;13.386;2022-10-15T09:41:31;7.80;;;6.53;;
12658;SDS011;6394;52.488;13.386;2022-10-15T09:44:00;7.30;;;6.33;;
12658;SDS011;6394;52.488;13.386;2022-10-15T09:46:29;7.10;;;6.40;;
12658;SDS011;6394;52.488;13.386;2022-10-15T09:49:00;5.57;;;5.07;;
12658;SDS011;6394;52.488;13.386;2022-10-15T09:51:28;5.90;;;5.40;;
12658;SDS011;6394;52.488;13.386;2022-10-15T09:53:59;5.93;;;5.33;;
12658;SDS011;6394;52.488;13.386;2022-10-15T09:56:30;5.93;;;5.43;;
12658;SDS011;6394;52.488;13.386;2022-10-15T09:58:58;6.97;;;6.00;;
12658;SDS011;6394;52.488;13.386;2022-10-15T10:01:26;6.53;;;5.83;;
12658;SDS011;6394;52.488;13.386;2022-10-15T10:04:08;6.00;;;5.40;;
12658;SDS011;6394;52.488;13.386;2022-10-15T10:06:41;6.00;;;5.50;;
12658;SDS011;6394;52.488;13.386;2022-10-15T10:09:11;6.77;;;5.60;;
12658;SDS011;6394;52.488;13.386;2022-10-15T10:11:47;6.77;;;5.30;;
12658;SDS011;6394;52.488;13.386;2022-10-15T10:14:22;6.50;;;5.20;;
12658;SDS011;6394;52.488;13.386;2022-10-15T10:19:36;5.87;;;5.37;;
12658;SDS011;6394;52.488;13.386;2022-10-15T10:22:11;5.90;;;5.40;;
12658;SDS011;6394;52.488;13.386;2022-10-15T10:24:39;5.43;;;4.97;;
12658;SDS011;6394;52.488;13.386;2022-10-15T10:27:16;5.90;;;5.40;;
12658;SDS011;6394;52.488;13.386;2022-10-15T10:29:46;5.63;;;5.20;;
12658;SDS011;6394;52.488;13.386;2022-10-15T10:32:17;6.10;;;5.50;;
12658;SDS011;6394;52.488;13.386;2022-10-15T10:34:46;6.23;;;4.67;;
12658;SDS011;6394;52.488;13.386;2022-10-15T10:37:13;5.47;;;5.00;;
12658;SDS011;6394;52.488;13.386;2022-10-15T10:39:40;4.87;;;4.23;;
12658;SDS011;6394;52.488;13.386;2022-10-15T10:42:22;5.00;;;4.60;;
12658;SDS011;6394;52.488;13.386;2022-10-15T10:44:51;5.47;;;4.97;;
12658;SDS011;6394;52.488;13.386;2022-10-15T10:47:19;4.80;;;4.40;;
12658;SDS011;6394;52.488;13.386;2022-10-15T10:49:47;5.67;;;5.00;;
12658;SDS011;6394;52.488;13.386;2022-10-15T10:52:18;5.10;;;4.70;;
12658;SDS011;6394;52.488;13.386;2022-10-15T10:54:46;5.03;;;4.63;;
12658;SDS011;6394;52.488;13.386;2022-10-15T10:57:14;4.97;;;4.47;;
12658;SDS011;6394;52.488;13.386;2022-10-15T10:59:47;6.73;;;4.97;;
12658;SDS011;6394;52.488;13.386;2022-10-15T11:02:18;5.10;;;4.70;;
12658;SDS011;6394;52.488;13.386;2022-10-15T11:04:45;4.80;;;4.40;;
12658;SDS011;6394;52.488;13.386;2022-10-15T11:07:14;5.13;;;4.63;;
12658;SDS011;6394;52.488;13.386;2022-10-15T11:09:50;5.13;;;4.63;;
12658;SDS011;6394;52.488;13.386;2022-10-15T11:12:24;5.97;;;4.90;;
12658;SDS011;6394;52.488;13.386;2022-10-15T11:14:54;5.47;;;4.63;;
12658;SDS011;6394;52.488;13.386;2022-10-15T11:17:27;5.40;;;4.90;;
12658;SDS011;6394;52.488;13.386;2022-10-15T11:20:00;5.10;;;4.60;;
12658;SDS011;6394;52.488;13.386;2022-10-15T11:22:33;5.33;;;4.83;;
12658;SDS011;6394;52.488;13.386;2022-10-15T11:25:05;4.60;;;4.20;;
12658;SDS011;6394;52.488;13.386;2022-10-15T11:27:38;4.57;;;4.17;;
12658;SDS011;6394;52.488;13.386;2022-10-15T11:30:10;5.93;;;4.80;;
12658;SDS011;6394;52.488;13.386;2022-10-15T11:32:44;6.17;;;4.60;;
12658;SDS011;6394;52.488;13.386;2022-10-15T11:35:25;6.13;;;4.73;;
12658;SDS011;6394;52.488;13.386;2022-10-15T11:37:59;6.07;;;4.37;;
12658;SDS011;6394;52.488;13.386;2022-10-15T11:40:31;4.27;;;3.73;;
12658;SDS011;6394;52.488;13.386;2022-10-15T11:43:00;4.47;;;4.07;;
12658;SDS011;6394;52.488;13.386;2022-10-15T11:45:35;4.43;;;4.03;;
12658;SDS011;6394;52.488;13.386;2022-10-15T11:48:08;3.90;;;3.50;;
12658;SDS011;6394;52.488;13.386;2022-10-15T11:50:39;5.57;;;3.80;;
12658;SDS011;6394;52.488;13.386;2022-10-15T11:53:26;4.07;;;3.70;;
12658;SDS011;6394;52.488;13.386;2022-10-15T11:55:55;3.83;;;3.50;;
12658;SDS011;6394;52.488;13.386;2022-10-15T11:58:26;3.77;;;3.43;;
12658;SDS011;6394;52.488;13.386;2022-10-15T12:00:55;4.83;;;3.93;;
12658;SDS011;6394;52.488;13.386;2022-10-15T12:03:26;4.30;;;3.90;;
12658;SDS011;6394;52.488;13.386;2022-10-15T12:05:54;3.60;;;3.30;;
12658;SDS011;6394;52.488;13.386;2022-10-15T12:08:23;4.40;;;3.33;;
12658;SDS011;6394;52.488;13.386;2022-10-15T12:10:56;3.33;;;3.03;;
12658;SDS011;6394;52.488;13.386;2022-10-15T12:13:27;2.97;;;2.77;;
12658;SDS011;6394;52.488;13.386;2022-10-15T12:15:58;3.43;;;3.13;;
12658;SDS011;6394;52.488;13.386;2022-10-15T12:18:32;3.20;;;2.90;;
12658;SDS011;6394;52.488;13.386;2022-10-15T12:21:01;3.33;;;3.00;;
12658;SDS011;6394;52.488;13.386;2022-10-15T12:23:38;3.07;;;2.70;;
12658;SDS011;6394;52.488;13.386;2022-10-15T12:28:51;3.33;;;2.80;;
12658;SDS011;6394;52.488;13.386;2022-10-15T12:31:18;4.20;;;2.83;;
12658;SDS011;6394;52.488;13.386;2022-10-15T12:33:48;2.43;;;2.23;;
12658;SDS011;6394;52.488;13.386;2022-10-15T12:36:20;2.87;;;2.67;;
12658;SDS011;6394;52.488;13.386;2022-10-15T12:38:53;2.93;;;2.73;;
12658;SDS011;6394;52.488;13.386;2022-10-15T12:41:32;2.70;;;2.50;;
12658;SDS011;6394;52.488;13.386;2022-10-15T12:44:04;3.30;;;2.87;;
12658;SDS011;6394;52.488;13.386;2022-10-15T12:46:34;2.63;;;2.20;;
12658;SDS011;6394;52.488;13.386;2022-10-15T12:49:10;2.43;;;2.23;;
12658;SDS011;6394;52.488;13.386;2022-10-15T12:54:37;5.17;;;2.50;;
12658;SDS011;6394;52.488;13.386;2022-10-15T12:59:54;2.40;;;2.20;;
12658;SDS011;6394;52.488;13.386;2022-10-15T13:05:22;2.73;;;1.90;;
12658;SDS011;6394;52.488;13.386;2022-10-15T13:07:49;2.80;;;2.10;;
12658;SDS011;6394;52.488;13.386;2022-10-15T13:10:18;2.00;;;1.80;;
12658;SDS011;6394;52.488;13.386;2022-10-15T13:12:49;2.00;;;1.80;;
12658;SDS011;6394;52.488;13.386;2022-10-15T13:15:17;2.10;;;1.90;;
12658;SDS011;6394;52.488;13.386;2022-10-15T13:17:44;3.33;;;1.73;;
12658;SDS011;6394;52.488;13.386;2022-10-15T13:20:22;2.70;;;1.80;;
12658;SDS011;6394;52.488;13.386;2022-10-15T13:22:54;3.47;;;1.70;;
12658;SDS011;6394;52.488;13.386;2022-10-15T13:25:32;1.60;;;1.50;;
12658;SDS011;6394;52.488;13.386;2022-10-15T13:28:00;2.93;;;1.50;;
12658;SDS011;6394;52.488;13.386;2022-10-15T13:30:27;1.90;;;1.70;;
12658;SDS011;6394;52.488;13.386;2022-10-15T13:32:54;1.50;;;1.40;;
12658;SDS011;6394;52.488;13.386;2022-10-15T13:35:24;1.83;;;1.50;;
12658;SDS011;6394;52.488;13.386;2022-10-15T13:37:54;2.07;;;1.70;;
12658;SDS011;6394;52.488;13.386;2022-10-15T13:40:23;1.67;;;1.57;;
12658;SDS011;6394;52.488;13.386;2022-10-15T13:42:56;2.07;;;1.60;;
12658;SDS011;6394;52.488;13.386;2022-10-15T13:45:24;1.60;;;1.30;;
12658;SDS011;6394;52.488;13.386;2022-10-15T13:47:52;2.77;;;1.70;;
12658;SDS011;6394;52.488;13.386;2022-10-15T13:50:21;1.70;;;1.60;;
12658;SDS011;6394;52.488;13.386;2022-10-15T13:52:51;4.23;;;2.40;;
12658;SDS011;6394;52.488;13.386;2022-10-15T13:55:20;2.63;;;2.00;;
12658;SDS011;6394;52.488;13.386;2022-10-15T13:57:49;2.40;;;2.20;;
12658;SDS011;6394;52.488;13.386;2022-10-15T14:00:20;1.70;;;1.60;;
12658;SDS011;6394;52.488;13.386;2022-10-15T14:05:30;2.57;;;1.77;;
12658;SDS011;6394;52.488;13.386;2022-10-15T14:07:59;2.50;;;1.60;;
12658;SDS011;6394;52.488;13.386;2022-10-15T14:10:26;4.47;;;1.87;;
12658;SDS011;6394;52.488;13.386;2022-10-15T14:12:54;4.50;;;2.07;;
12658;SDS011;6394;52.488;13.386;2022-10-15T14:15:40;2.83;;;1.73;;
12658;SDS011;6394;52.488;13.386;2022-10-15T14:18:07;2.33;;;1.80;;
12658;SDS011;6394;52.488;13.386;2022-10-15T14:20:34;3.70;;;1.90;;
12658;SDS011;6394;52.488;13.386;2022-10-15T14:23:03;3.80;;;1.40;;
12658;SDS011;6394;52.488;13.386;2022-10-15T14:25:30;2.33;;;1.90;;
12658;SDS011;6394;52.488;13.386;2022-10-15T14:27:57;2.67;;;1.70;;
12658;SDS011;6394;52.488;13.386;2022-10-15T14:30:26;4.40;;;1.90;;
12658;SDS011;6394;52.488;13.386;2022-10-15T14:32:54;1.30;;;1.20;;
12658;SDS011;6394;52.488;13.386;2022-10-15T14:35:22;1.50;;;1.30;;
12658;SDS011;6394;52.488;13.386;2022-10-15T14:37:58;1.77;;;1.30;;
12658;SDS011;6394;52.488;13.386;2022-10-15T14:40:27;2.77;;;1.70;;
12658;SDS011;6394;52.488;13.386;2022-10-15T14:43:02;2.53;;;1.50;;
12658;SDS011;6394;52.488;13.386;2022-10-15T14:45:30;1.50;;;1.27;;
12658;SDS011;6394;52.488;13.386;2022-10-15T14:47:58;2.50;;;1.77;;
12658;SDS011;6394;52.488;13.386;2022-10-15T14:50:26;4.57;;;1.63;;
12658;SDS011;6394;52.488;13.386;2022-10-15T14:52:54;2.37;;;1.27;;
12658;SDS011;6394;52.488;13.386;2022-10-15T14:55:28;3.40;;;1.60;;
12658;SDS011;6394;52.488;13.386;2022-10-15T14:57:57;1.93;;;1.50;;
12658;SDS011;6394;52.488;13.386;2022-10-15T15:00:26;1.43;;;1.30;;
12658;SDS011;6394;52.488;13.386;2022-10-15T15:02:53;2.20;;;1.50;;
12658;SDS011;6394;52.488;13.386;2022-10-15T15:05:22;2.37;;;1.47;;
12658;SDS011;6394;52.488;13.386;2022-10-15T15:07:50;3.23;;;1.40;;